Time;durP1;ratioP1;P1;durP2;ratioP2;P2;SDS_P1;SDS_P2;PMS_P1;PMS_P2;Temp;Humidity;BMP_temperature;BMP_pressure;BME280_temperature;BME280_humidity;BME280_pressure;Samples;Min_cycle;Max_cycle;Signal;HPM_P1;HPM_P2
2022/07/08 00:01:21;;;;;;;0.80;0.80;;;;;;;;;;10247696;28;20056;-49
2022/07/08 00:06:40;;;;;;;0.70;0.70;;;;;;;;;;10261033;28;20070;-49
2022/07/08 00:11:59;;;;;;;0.70;0.70;;;;;;;;;;10235549;28;20059;-49
2022/07/08 00:17:18;;;;;;;0.70;0.60;;;;;;;;;;10246716;28;20596;-49
2022/07/08 00:22:38;;;;;;;0.93;0.80;;;;;;;;;;10245393;28;20051;-49
2022/07/08 00:27:57;;;;;;;1.95;0.80;;;;;;;;;;10236629;28;20064;-49
2022/07/08 00:33:16;;;;;;;0.93;0.80;;;;;;;;;;10246737;28;20086;-49
2022/07/08 00:38:36;;;;;;;0.70;0.70;;;;;;;;;;10246688;28;20055;-49
2022/07/08 00:43:55;;;;;;;0.73;0.73;;;;;;;;;;10247000;28;20070;-49
2022/07/08 00:49:15;;;;;;;1.17;0.82;;;;;;;;;;10246692;28;20052;-50
2022/07/08 00:54:34;;;;;;;1.17;0.90;;;;;;;;;;10255977;28;20055;-52
2022/07/08 00:59:54;;;;;;;0.80;0.80;;;;;;;;;;10246680;28;20082;-49
2022/07/08 01:05:14;;;;;;;0.93;0.70;;;;;;;;;;10246780;28;20051;-53
2022/07/08 01:10:33;;;;;;;0.70;0.70;;;;;;;;;;10246795;28;20055;-51
2022/07/08 01:15:52;;;;;;;1.92;0.80;;;;;;;;;;10246587;28;20059;-49
2022/07/08 01:21:11;;;;;;;1.02;0.70;;;;;;;;;;10250125;28;20039;-49
2022/07/08 01:26:31;;;;;;;0.70;0.70;;;;;;;;;;10246823;28;20472;-50
2022/07/08 01:31:51;;;;;;;0.95;0.70;;;;;;;;;;10252701;28;20103;-50
2022/07/08 01:37:10;;;;;;;2.72;0.95;;;;;;;;;;10253131;28;20051;-50
2022/07/08 01:42:30;;;;;;;0.95;0.80;;;;;;;;;;10241467;28;20055;-50
2022/07/08 01:47:49;;;;;;;0.88;0.70;;;;;;;;;;10252784;28;20051;-50
2022/07/08 01:53:08;;;;;;;0.77;0.73;;;;;;;;;;10251533;28;20051;-49
2022/07/08 01:58:28;;;;;;;0.98;0.70;;;;;;;;;;10252106;28;20047;-50
2022/07/08 02:03:47;;;;;;;1.40;0.88;;;;;;;;;;10255509;28;20051;-50
2022/07/08 02:09:06;;;;;;;1.00;0.77;;;;;;;;;;10264460;28;20062;-49
2022/07/08 02:14:25;;;;;;;1.25;0.80;;;;;;;;;;10251536;28;20047;-49
2022/07/08 02:19:45;;;;;;;1.13;0.85;;;;;;;;;;10250398;29;20466;-50
2022/07/08 02:25:04;;;;;;;1.00;0.88;;;;;;;;;;10251791;28;20054;-50
2022/07/08 02:30:24;;;;;;;1.35;0.90;;;;;;;;;;10242975;28;20533;-49
2022/07/08 02:35:43;;;;;;;1.08;0.80;;;;;;;;;;10250657;28;20062;-49
2022/07/08 02:41:02;;;;;;;2.20;0.98;;;;;;;;;;10250700;28;20055;-49
2022/07/08 02:46:22;;;;;;;0.70;0.68;;;;;;;;;;10250589;28;20047;-49
2022/07/08 02:51:41;;;;;;;1.05;0.73;;;;;;;;;;10239263;28;20047;-49
2022/07/08 02:57:00;;;;;;;1.67;0.93;;;;;;;;;;10250606;28;20466;-49
2022/07/08 03:02:19;;;;;;;1.10;0.90;;;;;;;;;;10265512;28;20035;-49
2022/07/08 03:07:39;;;;;;;1.67;1.00;;;;;;;;;;10251773;28;20051;-49
2022/07/08 03:12:58;;;;;;;2.50;0.80;;;;;;;;;;10262354;28;20043;-49
2022/07/08 03:18:17;;;;;;;1.55;0.75;;;;;;;;;;10262367;28;20047;-49
2022/07/08 03:23:36;;;;;;;1.38;0.90;;;;;;;;;;10258706;28;20067;-49
2022/07/08 03:28:56;;;;;;;1.55;0.90;;;;;;;;;;10248493;28;20118;-50
2022/07/08 03:34:15;;;;;;;1.17;0.88;;;;;;;;;;10248757;29;20090;-49
2022/07/08 03:39:34;;;;;;;1.38;0.88;;;;;;;;;;10248848;28;20411;-50
2022/07/08 03:44:53;;;;;;;1.52;0.82;;;;;;;;;;10246642;28;20055;-49
2022/07/08 03:50:13;;;;;;;0.90;0.70;;;;;;;;;;10260808;28;20098;-49
2022/07/08 03:55:32;;;;;;;1.38;0.80;;;;;;;;;;10246856;28;20499;-49
2022/07/08 04:00:51;;;;;;;1.30;0.82;;;;;;;;;;10248186;28;20055;-49
2022/07/08 04:06:11;;;;;;;1.70;0.90;;;;;;;;;;10255659;28;20140;-49
2022/07/08 04:11:30;;;;;;;1.55;0.80;;;;;;;;;;10260683;28;20050;-49
2022/07/08 04:16:50;;;;;;;1.20;0.90;;;;;;;;;;10247115;28;20502;-49
2022/07/08 04:22:09;;;;;;;2.85;1.00;;;;;;;;;;10246380;28;20047;-49
2022/07/08 04:27:28;;;;;;;2.17;1.30;;;;;;;;;;10239077;28;20043;-49
2022/07/08 04:32:48;;;;;;;1.33;1.00;;;;;;;;;;10247379;28;20055;-49
2022/07/08 04:38:07;;;;;;;1.88;1.00;;;;;;;;;;10247273;28;20059;-49
2022/07/08 04:43:26;;;;;;;1.33;0.90;;;;;;;;;;10246816;28;20055;-49
2022/07/08 04:48:45;;;;;;;1.50;0.88;;;;;;;;;;10247192;28;20418;-49
2022/07/08 04:54:05;;;;;;;1.85;1.00;;;;;;;;;;10243684;28;20062;-49
2022/07/08 04:59:24;;;;;;;2.92;0.90;;;;;;;;;;10259766;28;20047;-50
2022/07/08 05:04:43;;;;;;;1.40;0.80;;;;;;;;;;10257834;28;20055;-50
2022/07/08 05:10:03;;;;;;;1.35;0.80;;;;;;;;;;10254886;28;20047;-49
2022/07/08 05:15:22;;;;;;;1.38;0.85;;;;;;;;;;10254417;28;20051;-49
2022/07/08 05:20:41;;;;;;;1.40;1.05;;;;;;;;;;10252093;29;20050;-49
2022/07/08 05:26:00;;;;;;;1.42;1.00;;;;;;;;;;10254043;28;20047;-49
2022/07/08 05:31:19;;;;;;;3.13;1.10;;;;;;;;;;10254295;28;20075;-51
2022/07/08 05:36:39;;;;;;;1.23;1.00;;;;;;;;;;10253782;28;20051;-50
2022/07/08 05:41:58;;;;;;;1.63;1.05;;;;;;;;;;10253822;28;20084;-49
2022/07/08 05:47:17;;;;;;;1.65;1.10;;;;;;;;;;10253701;28;20414;-49
2022/07/08 05:52:36;;;;;;;1.35;0.90;;;;;;;;;;10266148;28;20047;-49
2022/07/08 05:57:56;;;;;;;1.13;1.00;;;;;;;;;;10252410;28;20066;-50
2022/07/08 06:03:15;;;;;;;1.55;0.93;;;;;;;;;;10249654;28;20522;-49
2022/07/08 06:08:34;;;;;;;1.27;0.90;;;;;;;;;;10238283;28;20067;-50
2022/07/08 06:13:53;;;;;;;1.40;1.17;;;;;;;;;;10251580;28;20055;-49
2022/07/08 06:19:13;;;;;;;1.52;1.10;;;;;;;;;;10250973;29;20050;-49
2022/07/08 06:24:32;;;;;;;1.50;1.00;;;;;;;;;;10252113;28;20050;-49
2022/07/08 06:29:52;;;;;;;1.73;1.23;;;;;;;;;;10251611;28;20118;-50
2022/07/08 06:35:11;;;;;;;1.08;0.98;;;;;;;;;;10259509;28;20039;-49
2022/07/08 06:40:30;;;;;;;1.80;1.00;;;;;;;;;;10250723;28;20051;-50
2022/07/08 06:45:50;;;;;;;1.10;1.00;;;;;;;;;;10263905;28;20498;-49
2022/07/08 06:51:10;;;;;;;1.77;1.13;;;;;;;;;;10251120;28;20059;-49
2022/07/08 06:56:29;;;;;;;2.60;1.30;;;;;;;;;;10250398;28;20067;-49
2022/07/08 07:01:50;;;;;;;1.50;1.00;;;;;;;;;;10263744;28;20047;-49
2022/07/08 07:07:10;;;;;;;1.80;1.10;;;;;;;;;;10241389;28;20077;-49
2022/07/08 07:12:29;;;;;;;1.67;1.20;;;;;;;;;;10250122;28;20394;-49
2022/07/08 07:17:49;;;;;;;1.23;1.00;;;;;;;;;;10262767;28;20093;-49
2022/07/08 07:23:08;;;;;;;1.73;1.10;;;;;;;;;;10248610;28;20066;-50
2022/07/08 07:28:27;;;;;;;1.40;0.90;;;;;;;;;;10240314;28;20062;-49
2022/07/08 07:33:46;;;;;;;1.85;1.05;;;;;;;;;;10249536;29;20067;-50
2022/07/08 07:39:08;;;;;;;1.60;0.98;;;;;;;;;;10249285;29;20081;-50
2022/07/08 07:44:27;;;;;;;1.55;1.15;;;;;;;;;;10248985;28;20413;-49
2022/07/08 07:49:47;;;;;;;1.25;1.05;;;;;;;;;;10248837;28;20071;-49
2022/07/08 07:55:08;;;;;;;1.20;0.90;;;;;;;;;;10248023;28;20601;-50
2022/07/08 08:00:28;;;;;;;2.42;1.20;;;;;;;;;;10248388;28;20148;-49
2022/07/08 08:05:47;;;;;;;1.63;1.30;;;;;;;;;;10248946;28;20057;-51
2022/07/08 08:11:06;;;;;;;1.42;1.15;;;;;;;;;;10247635;28;20503;-50
2022/07/08 08:16:25;;;;;;;1.38;0.98;;;;;;;;;;10248433;28;20043;-50
2022/07/08 08:21:45;;;;;;;1.50;1.10;;;;;;;;;;10246264;28;20050;-49
2022/07/08 08:27:04;;;;;;;2.05;1.20;;;;;;;;;;10247630;28;20051;-49
2022/07/08 08:32:23;;;;;;;1.48;1.20;;;;;;;;;;10260426;28;20062;-51
2022/07/08 08:37:43;;;;;;;2.28;1.23;;;;;;;;;;10249872;28;20051;-50
2022/07/08 08:43:02;;;;;;;1.88;1.23;;;;;;;;;;10252437;29;20051;-49
2022/07/08 08:48:22;;;;;;;1.67;1.40;;;;;;;;;;10250575;28;20074;-50
2022/07/08 08:53:45;;;;;;;1.75;1.30;;;;;;;;;;10266938;28;20059;-50
2022/07/08 08:59:05;;;;;;;1.60;1.35;;;;;;;;;;10255385;29;20063;-49
2022/07/08 09:04:25;;;;;;;1.67;1.23;;;;;;;;;;10261085;28;20047;-51
2022/07/08 09:09:44;;;;;;;2.17;1.30;;;;;;;;;;10267842;28;20039;-49
2022/07/08 09:15:04;;;;;;;1.92;1.27;;;;;;;;;;10254708;28;20058;-50
2022/07/08 09:20:23;;;;;;;1.45;1.10;;;;;;;;;;10252655;28;20165;-50
2022/07/08 09:25:44;;;;;;;1.33;1.23;;;;;;;;;;10247630;28;20050;-50
2022/07/08 09:31:08;;;;;;;3.08;1.40;;;;;;;;;;10249906;28;20055;-50
2022/07/08 09:36:28;;;;;;;1.30;1.20;;;;;;;;;;10241731;28;20055;-49
2022/07/08 09:41:48;;;;;;;2.22;1.23;;;;;;;;;;10253730;29;20106;-49
2022/07/08 09:47:08;;;;;;;1.60;1.20;;;;;;;;;;10253518;28;20101;-49
2022/07/08 09:52:27;;;;;;;1.20;1.08;;;;;;;;;;10252332;28;20437;-49
2022/07/08 09:57:46;;;;;;;1.45;1.35;;;;;;;;;;10253656;28;20055;-50
2022/07/08 10:03:06;;;;;;;1.67;1.30;;;;;;;;;;10253736;28;20047;-50
2022/07/08 10:08:25;;;;;;;1.67;1.35;;;;;;;;;;10252197;28;20059;-49
2022/07/08 10:13:44;;;;;;;2.03;1.25;;;;;;;;;;10252494;28;20185;-50
2022/07/08 10:19:05;;;;;;;2.22;1.55;;;;;;;;;;10251229;28;20058;-50
2022/07/08 10:24:26;;;;;;;1.60;1.50;;;;;;;;;;10252177;28;20051;-50
2022/07/08 10:29:49;;;;;;;2.30;1.50;;;;;;;;;;10250214;28;20130;-49
2022/07/08 10:35:10;;;;;;;1.80;1.33;;;;;;;;;;10264358;28;20039;-49
2022/07/08 10:40:45;;;;;;;2.13;1.50;;;;;;;;;;10251440;28;20062;-50
2022/07/08 10:46:12;;;;;;;1.40;1.30;;;;;;;;;;10251288;28;20050;-49
2022/07/08 10:51:31;;;;;;;1.42;1.30;;;;;;;;;;10251994;28;20047;-49
2022/07/08 10:56:54;;;;;;;1.60;1.45;;;;;;;;;;10253948;28;20442;-49
2022/07/08 11:02:14;;;;;;;1.60;1.50;;;;;;;;;;10252282;28;20426;-50
2022/07/08 11:07:34;;;;;;;1.98;1.30;;;;;;;;;;10254222;28;20090;-50
2022/07/08 11:12:55;;;;;;;1.48;1.38;;;;;;;;;;10249450;28;20507;-50
2022/07/08 11:18:24;;;;;;;1.42;1.27;;;;;;;;;;10250318;28;20070;-49
2022/07/08 11:23:46;;;;;;;1.38;1.27;;;;;;;;;;10252271;28;20054;-50
2022/07/08 11:29:14;;;;;;;1.42;1.30;;;;;;;;;;10244357;28;20047;-49
2022/07/08 11:34:35;;;;;;;1.40;1.30;;;;;;;;;;10262305;28;20050;-49
2022/07/08 11:39:55;;;;;;;1.80;1.40;;;;;;;;;;10244252;29;20059;-50
2022/07/08 11:45:14;;;;;;;1.55;1.45;;;;;;;;;;10247524;29;20495;-49
2022/07/08 11:50:36;;;;;;;1.65;1.30;;;;;;;;;;10251956;28;20050;-50
2022/07/08 11:55:56;;;;;;;1.52;1.42;;;;;;;;;;10248431;28;20074;-49
2022/07/08 12:01:15;;;;;;;1.50;1.40;;;;;;;;;;10247595;28;20054;-49
2022/07/08 12:06:44;;;;;;;1.50;1.40;;;;;;;;;;10253659;28;20051;-49
2022/07/08 12:12:06;;;;;;;1.35;1.20;;;;;;;;;;10245080;28;20055;-49
2022/07/08 12:17:29;;;;;;;1.48;1.38;;;;;;;;;;10248415;29;20047;-49
2022/07/08 12:22:49;;;;;;;1.40;1.30;;;;;;;;;;10246268;28;20058;-50
2022/07/08 12:28:08;;;;;;;1.50;1.40;;;;;;;;;;10260526;28;20549;-49
2022/07/08 12:33:28;;;;;;;1.50;1.40;;;;;;;;;;10235765;29;20059;-49
2022/07/08 12:38:47;;;;;;;2.42;1.50;;;;;;;;;;10247091;28;20502;-49
2022/07/08 12:44:25;;;;;;;1.60;1.50;;;;;;;;;;10248055;28;20043;-50
2022/07/08 12:49:46;;;;;;;1.50;1.40;;;;;;;;;;10247872;28;20051;-49
2022/07/08 12:55:06;;;;;;;1.50;1.40;;;;;;;;;;10236377;28;20074;-49
2022/07/08 13:00:25;;;;;;;1.83;1.48;;;;;;;;;;10247314;28;20043;-50
2022/07/08 13:05:44;;;;;;;1.35;1.25;;;;;;;;;;10247748;28;20051;-49
2022/07/08 13:11:03;;;;;;;1.40;1.30;;;;;;;;;;10246941;29;20114;-50
2022/07/08 13:16:23;;;;;;;1.40;1.30;;;;;;;;;;10247009;29;20067;-50
2022/07/08 13:21:42;;;;;;;1.80;1.55;;;;;;;;;;10249591;28;20438;-50
2022/07/08 13:27:02;;;;;;;1.30;1.20;;;;;;;;;;10252074;28;20058;-49
2022/07/08 13:32:23;;;;;;;1.30;1.20;;;;;;;;;;10266618;28;20483;-49
2022/07/08 13:37:42;;;;;;;1.40;1.30;;;;;;;;;;10266695;28;20054;-49
2022/07/08 13:43:02;;;;;;;1.67;1.30;;;;;;;;;;10266270;28;20094;-50
2022/07/08 13:48:21;;;;;;;1.15;1.15;;;;;;;;;;10253666;29;20176;-49
2022/07/08 13:53:40;;;;;;;1.33;1.23;;;;;;;;;;10252282;28;20051;-49
2022/07/08 13:58:59;;;;;;;1.30;1.20;;;;;;;;;;10252169;28;20494;-50
2022/07/08 14:04:18;;;;;;;1.40;1.30;;;;;;;;;;10255317;28;20054;-49
2022/07/08 14:09:38;;;;;;;1.45;1.35;;;;;;;;;;10265196;28;20067;-49
2022/07/08 14:14:58;;;;;;;1.63;1.50;;;;;;;;;;10252186;29;20079;-49
2022/07/08 14:20:18;;;;;;;1.80;1.70;;;;;;;;;;10264333;28;20050;-49
2022/07/08 14:25:37;;;;;;;1.42;1.33;;;;;;;;;;10240537;28;20054;-49
2022/07/08 14:30:56;;;;;;;1.33;1.23;;;;;;;;;;10251591;28;20116;-50
2022/07/08 14:36:16;;;;;;;1.50;1.40;;;;;;;;;;10250370;28;20062;-49
2022/07/08 14:41:35;;;;;;;1.73;1.20;;;;;;;;;;10251375;28;20047;-50
2022/07/08 14:46:55;;;;;;;1.35;1.25;;;;;;;;;;10251657;28;20125;-49
2022/07/08 14:52:16;;;;;;;1.48;1.30;;;;;;;;;;10250360;28;20122;-49
2022/07/08 14:57:35;;;;;;;1.40;1.30;;;;;;;;;;10250177;29;20059;-49
2022/07/08 15:02:55;;;;;;;1.35;1.25;;;;;;;;;;10262085;28;20102;-49
2022/07/08 15:08:14;;;;;;;1.30;1.20;;;;;;;;;;10250493;28;20051;-49
2022/07/08 15:13:34;;;;;;;1.52;1.42;;;;;;;;;;10256716;28;20055;-50
2022/07/08 15:18:53;;;;;;;1.90;1.50;;;;;;;;;;10248303;29;20510;-51
2022/07/08 15:24:13;;;;;;;1.50;1.40;;;;;;;;;;10250075;29;20047;-51
2022/07/08 15:29:33;;;;;;;1.73;1.50;;;;;;;;;;10249809;28;20052;-49
2022/07/08 15:34:52;;;;;;;1.50;1.40;;;;;;;;;;10262542;28;20065;-49
2022/07/08 15:40:11;;;;;;;1.58;1.48;;;;;;;;;;10249683;28;20055;-49
2022/07/08 15:45:30;;;;;;;1.42;1.33;;;;;;;;;;10237498;28;20047;-50
2022/07/08 15:50:50;;;;;;;1.80;1.70;;;;;;;;;;10261266;28;20054;-50
2022/07/08 15:56:09;;;;;;;1.80;1.70;;;;;;;;;;10253827;28;20491;-49
2022/07/08 16:01:31;;;;;;;1.73;1.63;;;;;;;;;;10248781;28;20047;-49
2022/07/08 16:06:50;;;;;;;1.60;1.50;;;;;;;;;;10265503;28;20047;-49
2022/07/08 16:12:09;;;;;;;1.50;1.40;;;;;;;;;;10261043;28;20051;-50
2022/07/08 16:17:29;;;;;;;1.60;1.50;;;;;;;;;;10243268;29;20052;-49
2022/07/08 16:22:48;;;;;;;1.52;1.42;;;;;;;;;;10245304;29;20498;-49
2022/07/08 16:28:08;;;;;;;1.55;1.45;;;;;;;;;;10238526;29;20498;-49
2022/07/08 16:33:27;;;;;;;1.40;1.30;;;;;;;;;;10247142;29;20106;-50
2022/07/08 16:38:46;;;;;;;1.50;1.40;;;;;;;;;;10247506;29;20122;-49
2022/07/08 16:44:05;;;;;;;1.60;1.50;;;;;;;;;;10257992;28;20050;-49
2022/07/08 16:49:25;;;;;;;1.58;1.48;;;;;;;;;;10247564;28;20047;-50
2022/07/08 16:54:44;;;;;;;1.73;1.63;;;;;;;;;;10246988;28;20063;-50
2022/07/08 17:00:04;;;;;;;1.50;1.40;;;;;;;;;;10251618;28;20059;-50
2022/07/08 17:05:23;;;;;;;1.63;1.52;;;;;;;;;;10276461;28;20068;-50
2022/07/08 17:10:42;;;;;;;1.73;1.50;;;;;;;;;;10254516;28;20052;-52
2022/07/08 17:16:01;;;;;;;1.60;1.40;;;;;;;;;;10254615;28;20050;-49
2022/07/08 17:21:22;;;;;;;1.50;1.40;;;;;;;;;;10245229;28;20414;-49
2022/07/08 17:26:41;;;;;;;1.92;1.60;;;;;;;;;;10250265;28;20491;-49
2022/07/08 17:32:01;;;;;;;1.50;1.40;;;;;;;;;;10254244;28;20066;-49
2022/07/08 17:37:20;;;;;;;1.40;1.30;;;;;;;;;;10253217;28;20510;-49
2022/07/08 17:42:39;;;;;;;1.40;1.30;;;;;;;;;;10266587;28;20066;-50
2022/07/08 17:47:59;;;;;;;1.52;1.42;;;;;;;;;;10253522;28;20134;-51
2022/07/08 17:53:18;;;;;;;2.28;1.83;;;;;;;;;;10253543;29;20062;-49
2022/07/08 17:58:37;;;;;;;1.52;1.42;;;;;;;;;;10266347;28;20509;-50
2022/07/08 18:03:57;;;;;;;1.30;1.20;;;;;;;;;;10256076;28;20059;-50
2022/07/08 18:09:16;;;;;;;1.30;1.20;;;;;;;;;;10253435;28;20149;-49
2022/07/08 18:14:37;;;;;;;1.90;1.30;;;;;;;;;;10252670;28;20063;-50
2022/07/08 18:19:56;;;;;;;1.50;1.40;;;;;;;;;;10243605;29;20509;-49
2022/07/08 18:25:16;;;;;;;1.63;1.52;;;;;;;;;;10246433;28;20039;-49
2022/07/08 18:30:36;;;;;;;1.40;1.30;;;;;;;;;;10251634;28;20058;-49
2022/07/08 18:35:55;;;;;;;1.48;1.38;;;;;;;;;;10251947;28;20418;-50
2022/07/08 18:41:15;;;;;;;1.15;1.10;;;;;;;;;;10251554;29;20055;-49
2022/07/08 18:46:35;;;;;;;1.33;1.23;;;;;;;;;;10264172;28;20040;-49
2022/07/08 18:51:54;;;;;;;1.40;1.20;;;;;;;;;;10251195;29;20414;-49
2022/07/08 18:57:14;;;;;;;1.38;1.25;;;;;;;;;;10261681;28;20055;-50
2022/07/08 19:02:34;;;;;;;1.30;1.20;;;;;;;;;;10255309;28;20051;-49
2022/07/08 19:07:53;;;;;;;1.20;1.13;;;;;;;;;;10239263;28;20111;-49
2022/07/08 19:13:12;;;;;;;1.42;1.20;;;;;;;;;;10263101;28;20051;-49
2022/07/08 19:18:32;;;;;;;1.45;1.17;;;;;;;;;;10249390;28;20502;-49
2022/07/08 19:23:51;;;;;;;1.38;1.20;;;;;;;;;;10248319;28;20051;-51
2022/07/08 19:29:11;;;;;;;1.23;1.08;;;;;;;;;;10249501;28;20099;-51
2022/07/08 19:34:30;;;;;;;1.27;1.10;;;;;;;;;;10249446;28;20077;-49
2022/07/08 19:39:49;;;;;;;1.27;1.00;;;;;;;;;;10256270;28;20047;-50
2022/07/08 19:45:09;;;;;;;1.20;1.08;;;;;;;;;;10248697;28;20047;-50
2022/07/08 19:50:28;;;;;;;1.38;1.10;;;;;;;;;;10237121;28;20055;-49
2022/07/08 19:55:48;;;;;;;1.20;1.10;;;;;;;;;;10247470;28;20067;-49
2022/07/08 20:01:07;;;;;;;2.17;1.17;;;;;;;;;;10261728;28;20039;-50
2022/07/08 20:06:27;;;;;;;1.30;1.08;;;;;;;;;;10260226;28;20102;-49
2022/07/08 20:11:46;;;;;;;1.85;1.10;;;;;;;;;;10236925;29;20102;-50
2022/07/08 20:17:06;;;;;;;0.95;0.90;;;;;;;;;;10248406;28;20051;-49
2022/07/08 20:22:25;;;;;;;1.02;0.95;;;;;;;;;;10260092;28;20043;-52
2022/07/08 20:27:44;;;;;;;1.10;0.98;;;;;;;;;;10247900;28;20059;-49
2022/07/08 20:33:04;;;;;;;1.27;1.17;;;;;;;;;;10243036;28;20066;-49
2022/07/08 20:38:24;;;;;;;1.17;1.05;;;;;;;;;;10247548;28;20138;-51
2022/07/08 20:43:44;;;;;;;2.25;1.20;;;;;;;;;;10247527;28;20054;-52
2022/07/08 20:49:03;;;;;;;1.15;0.90;;;;;;;;;;10247194;28;20070;-50
2022/07/08 20:54:24;;;;;;;1.20;1.00;;;;;;;;;;10246981;28;20059;-49
2022/07/08 20:59:44;;;;;;;1.35;1.10;;;;;;;;;;10272896;28;20044;-50
2022/07/08 21:05:04;;;;;;;0.80;0.80;;;;;;;;;;10256876;28;20051;-50
2022/07/08 21:10:24;;;;;;;1.45;1.20;;;;;;;;;;10247553;29;20047;-49
2022/07/08 21:15:43;;;;;;;0.90;0.90;;;;;;;;;;10259911;28;20055;-50
2022/07/08 21:21:02;;;;;;;1.20;1.10;;;;;;;;;;10246216;28;20140;-49
2022/07/08 21:26:21;;;;;;;1.40;1.05;;;;;;;;;;10241557;28;20051;-49
2022/07/08 21:31:41;;;;;;;1.10;1.00;;;;;;;;;;10243763;28;20055;-50
2022/07/08 21:37:00;;;;;;;1.58;1.10;;;;;;;;;;10246786;29;20061;-49
2022/07/08 21:42:19;;;;;;;1.13;1.00;;;;;;;;;;10247822;28;20051;-49
2022/07/08 21:47:39;;;;;;;1.42;1.08;;;;;;;;;;10251298;28;20055;-49
2022/07/08 21:52:58;;;;;;;0.90;0.85;;;;;;;;;;10266292;28;20136;-49
2022/07/08 21:58:19;;;;;;;0.90;0.90;;;;;;;;;;10244273;28;20062;-50
2022/07/08 22:03:38;;;;;;;1.20;0.88;;;;;;;;;;10256776;28;20491;-49
2022/07/08 22:08:58;;;;;;;0.80;0.80;;;;;;;;;;10252996;28;20117;-50
2022/07/08 22:14:17;;;;;;;0.95;0.70;;;;;;;;;;10265495;28;20106;-49
2022/07/08 22:19:38;;;;;;;1.08;0.98;;;;;;;;;;10252588;28;20047;-50
2022/07/08 22:24:57;;;;;;;1.05;0.80;;;;;;;;;;10246364;29;20055;-50
2022/07/08 22:30:16;;;;;;;1.27;0.80;;;;;;;;;;10231820;29;20062;-49
2022/07/08 22:35:36;;;;;;;1.25;0.90;;;;;;;;;;10264856;28;20050;-49
2022/07/08 22:40:55;;;;;;;1.00;0.90;;;;;;;;;;10251816;28;20486;-49
2022/07/08 22:46:14;;;;;;;1.33;0.90;;;;;;;;;;10251238;28;20486;-49
2022/07/08 22:51:34;;;;;;;1.30;1.02;;;;;;;;;;10250954;28;20503;-49
2022/07/08 22:56:56;;;;;;;1.42;0.90;;;;;;;;;;10250363;28;20067;-50
2022/07/08 23:02:15;;;;;;;1.38;1.02;;;;;;;;;;10253332;28;20051;-50
2022/07/08 23:07:34;;;;;;;1.30;1.10;;;;;;;;;;10244406;28;20055;-50
2022/07/08 23:12:53;;;;;;;1.25;0.90;;;;;;;;;;10250677;28;20101;-50
2022/07/08 23:18:13;;;;;;;1.08;0.98;;;;;;;;;;10248709;28;20612;-49
2022/07/08 23:23:32;;;;;;;1.40;1.00;;;;;;;;;;10248616;28;20058;-49
2022/07/08 23:28:55;;;;;;;0.80;0.80;;;;;;;;;;10249657;28;20114;-49
2022/07/08 23:34:14;;;;;;;0.80;0.80;;;;;;;;;;10262367;28;20046;-50
2022/07/08 23:39:34;;;;;;;1.27;0.90;;;;;;;;;;10241444;28;20055;-50
2022/07/08 23:44:53;;;;;;;0.88;0.80;;;;;;;;;;10262269;28;20051;-49
2022/07/08 23:50:13;;;;;;;0.95;0.85;;;;;;;;;;10237298;29;20538;-49
2022/07/08 23:55:32;;;;;;;1.15;0.90;;;;;;;;;;10248846;28;20059;-49
